sensor_id;sensor_type;location;lat;lon;timestamp;P1;durP1;ratioP1;P2;durP2;ratioP2
21615;SDS011;10970;48.714;9.584;2023-02-27T00:02:07;1.87;;;1.73;;
21615;SDS011;10970;48.714;9.584;2023-02-27T00:04:33;3.85;;;1.65;;
21615;SDS011;10970;48.714;9.584;2023-02-27T00:06:59;2.70;;;1.87;;
21615;SDS011;10970;48.714;9.584;2023-02-27T00:09:24;1.90;;;1.50;;
21615;SDS011;10970;48.714;9.584;2023-02-27T00:11:50;1.60;;;1.50;;
21615;SDS011;10970;48.714;9.584;2023-02-27T00:14:16;1.33;;;1.23;;
21615;SDS011;10970;48.714;9.584;2023-02-27T00:16:41;1.70;;;1.60;;
21615;SDS011;10970;48.714;9.584;2023-02-27T00:19:07;2.93;;;1.43;;
21615;SDS011;10970;48.714;9.584;2023-02-27T00:21:33;1.83;;;1.60;;
21615;SDS011;10970;48.714;9.584;2023-02-27T00:23:59;4.28;;;1.80;;
21615;SDS011;10970;48.714;9.584;2023-02-27T00:26:25;1.60;;;1.50;;
21615;SDS011;10970;48.714;9.584;2023-02-27T00:28:51;5.13;;;1.80;;
21615;SDS011;10970;48.714;9.584;2023-02-27T00:31:16;3.97;;;2.00;;
21615;SDS011;10970;48.714;9.584;2023-02-27T00:33:42;2.33;;;1.47;;
21615;SDS011;10970;48.714;9.584;2023-02-27T00:36:07;3.07;;;1.60;;
21615;SDS011;10970;48.714;9.584;2023-02-27T00:38:33;1.50;;;1.40;;
21615;SDS011;10970;48.714;9.584;2023-02-27T00:40:59;2.78;;;2.03;;
21615;SDS011;10970;48.714;9.584;2023-02-27T00:43:25;3.80;;;1.87;;
21615;SDS011;10970;48.714;9.584;2023-02-27T00:45:50;2.43;;;1.73;;
21615;SDS011;10970;48.714;9.584;2023-02-27T00:48:16;2.43;;;1.80;;
21615;SDS011;10970;48.714;9.584;2023-02-27T00:50:42;1.93;;;1.70;;
21615;SDS011;10970;48.714;9.584;2023-02-27T00:53:07;2.60;;;1.63;;
21615;SDS011;10970;48.714;9.584;2023-02-27T00:55:33;4.60;;;1.93;;
21615;SDS011;10970;48.714;9.584;2023-02-27T00:57:59;1.53;;;1.30;;
21615;SDS011;10970;48.714;9.584;2023-02-27T01:02:54;3.72;;;1.98;;
21615;SDS011;10970;48.714;9.584;2023-02-27T01:05:20;2.90;;;1.83;;
21615;SDS011;10970;48.714;9.584;2023-02-27T01:07:45;4.97;;;2.03;;
21615;SDS011;10970;48.714;9.584;2023-02-27T01:10:11;1.93;;;1.83;;
21615;SDS011;10970;48.714;9.584;2023-02-27T01:12:37;1.95;;;1.70;;
21615;SDS011;10970;48.714;9.584;2023-02-27T01:15:04;1.05;;;1.05;;
21615;SDS011;10970;48.714;9.584;2023-02-27T01:17:31;1.20;;;1.10;;
21615;SDS011;10970;48.714;9.584;2023-02-27T01:19:57;5.90;;;1.58;;
21615;SDS011;10970;48.714;9.584;2023-02-27T01:22:23;1.33;;;1.10;;
21615;SDS011;10970;48.714;9.584;2023-02-27T01:24:48;3.00;;;1.70;;
21615;SDS011;10970;48.714;9.584;2023-02-27T01:27:14;3.60;;;1.50;;
21615;SDS011;10970;48.714;9.584;2023-02-27T01:29:40;1.83;;;1.70;;
21615;SDS011;10970;48.714;9.584;2023-02-27T01:32:05;2.10;;;1.60;;
21615;SDS011;10970;48.714;9.584;2023-02-27T01:34:31;2.63;;;2.17;;
21615;SDS011;10970;48.714;9.584;2023-02-27T01:36:57;2.60;;;1.67;;
21615;SDS011;10970;48.714;9.584;2023-02-27T01:39:23;1.60;;;1.50;;
21615;SDS011;10970;48.714;9.584;2023-02-27T01:41:51;3.65;;;1.73;;
21615;SDS011;10970;48.714;9.584;2023-02-27T01:44:17;2.60;;;1.92;;
21615;SDS011;10970;48.714;9.584;2023-02-27T01:46:43;1.90;;;1.80;;
21615;SDS011;10970;48.714;9.584;2023-02-27T01:49:10;1.63;;;1.23;;
21615;SDS011;10970;48.714;9.584;2023-02-27T01:51:45;2.20;;;2.00;;
21615;SDS011;10970;48.714;9.584;2023-02-27T01:54:15;2.17;;;1.30;;
21615;SDS011;10970;48.714;9.584;2023-02-27T01:56:43;3.03;;;2.47;;
21615;SDS011;10970;48.714;9.584;2023-02-27T01:59:09;2.27;;;2.10;;
21615;SDS011;10970;48.714;9.584;2023-02-27T02:01:36;3.63;;;2.05;;
21615;SDS011;10970;48.714;9.584;2023-02-27T02:06:41;3.17;;;1.70;;
21615;SDS011;10970;48.714;9.584;2023-02-27T02:09:10;2.60;;;2.40;;
21615;SDS011;10970;48.714;9.584;2023-02-27T02:11:40;1.95;;;1.48;;
21615;SDS011;10970;48.714;9.584;2023-02-27T02:14:07;2.30;;;2.20;;
21615;SDS011;10970;48.714;9.584;2023-02-27T02:24:50;2.17;;;1.98;;
21615;SDS011;10970;48.714;9.584;2023-02-27T02:42:04;1.60;;;1.40;;
21615;SDS011;10970;48.714;9.584;2023-02-27T02:44:51;4.82;;;2.75;;
21615;SDS011;10970;48.714;9.584;2023-02-27T02:47:38;2.75;;;2.55;;
21615;SDS011;10970;48.714;9.584;2023-02-27T02:50:28;2.40;;;2.20;;
21615;SDS011;10970;48.714;9.584;2023-02-27T02:53:17;1.92;;;1.70;;
21615;SDS011;10970;48.714;9.584;2023-02-27T03:01:02;2.10;;;2.00;;
21615;SDS011;10970;48.714;9.584;2023-02-27T03:03:52;4.63;;;1.80;;
21615;SDS011;10970;48.714;9.584;2023-02-27T03:06:23;2.70;;;2.50;;
21615;SDS011;10970;48.714;9.584;2023-02-27T03:09:02;2.00;;;1.90;;
21615;SDS011;10970;48.714;9.584;2023-02-27T03:11:35;2.55;;;1.80;;
21615;SDS011;10970;48.714;9.584;2023-02-27T03:16:47;3.13;;;2.50;;
21615;SDS011;10970;48.714;9.584;2023-02-27T03:19:19;3.88;;;1.70;;
21615;SDS011;10970;48.714;9.584;2023-02-27T03:22:01;2.55;;;2.35;;
21615;SDS011;10970;48.714;9.584;2023-02-27T03:24:32;4.82;;;2.70;;
21615;SDS011;10970;48.714;9.584;2023-02-27T03:27:11;3.20;;;2.70;;
21615;SDS011;10970;48.714;9.584;2023-02-27T03:32:35;1.73;;;1.63;;
21615;SDS011;10970;48.714;9.584;2023-02-27T03:35:23;3.78;;;2.95;;
21615;SDS011;10970;48.714;9.584;2023-02-27T03:37:58;2.65;;;2.45;;
21615;SDS011;10970;48.714;9.584;2023-02-27T03:40:43;1.77;;;1.67;;
21615;SDS011;10970;48.714;9.584;2023-02-27T03:43:20;2.72;;;2.53;;
21615;SDS011;10970;48.714;9.584;2023-02-27T03:46:13;5.60;;;1.85;;
21615;SDS011;10970;48.714;9.584;2023-02-27T03:48:44;3.05;;;2.75;;
21615;SDS011;10970;48.714;9.584;2023-02-27T03:51:14;4.70;;;2.00;;
21615;SDS011;10970;48.714;9.584;2023-02-27T03:57:17;2.15;;;1.95;;
21615;SDS011;10970;48.714;9.584;2023-02-27T03:59:25;3.10;;;2.17;;
21615;SDS011;10970;48.714;9.584;2023-02-27T04:01:52;3.45;;;3.00;;
21615;SDS011;10970;48.714;9.584;2023-02-27T04:04:20;3.28;;;2.65;;
21615;SDS011;10970;48.714;9.584;2023-02-27T04:06:47;2.22;;;1.90;;
21615;SDS011;10970;48.714;9.584;2023-02-27T04:09:52;3.13;;;2.92;;
21615;SDS011;10970;48.714;9.584;2023-02-27T04:20:40;2.33;;;2.10;;
21615;SDS011;10970;48.714;9.584;2023-02-27T04:23:17;3.40;;;3.13;;
21615;SDS011;10970;48.714;9.584;2023-02-27T04:34:33;2.92;;;2.67;;
21615;SDS011;10970;48.714;9.584;2023-02-27T04:37:12;2.83;;;2.25;;
21615;SDS011;10970;48.714;9.584;2023-02-27T04:42:53;2.83;;;2.28;;
21615;SDS011;10970;48.714;9.584;2023-02-27T04:45:22;3.20;;;2.65;;
21615;SDS011;10970;48.714;9.584;2023-02-27T04:48:00;4.93;;;2.88;;
21615;SDS011;10970;48.714;9.584;2023-02-27T04:50:36;4.50;;;3.00;;
21615;SDS011;10970;48.714;9.584;2023-02-27T04:53:18;5.13;;;3.67;;
21615;SDS011;10970;48.714;9.584;2023-02-27T04:55:53;2.85;;;2.60;;
21615;SDS011;10970;48.714;9.584;2023-02-27T04:58:28;3.42;;;3.13;;
21615;SDS011;10970;48.714;9.584;2023-02-27T05:01:00;3.80;;;2.85;;
21615;SDS011;10970;48.714;9.584;2023-02-27T05:03:33;7.07;;;4.07;;
21615;SDS011;10970;48.714;9.584;2023-02-27T05:06:04;9.18;;;5.55;;
21615;SDS011;10970;48.714;9.584;2023-02-27T05:11:13;8.15;;;3.65;;
21615;SDS011;10970;48.714;9.584;2023-02-27T05:13:47;4.85;;;3.30;;
21615;SDS011;10970;48.714;9.584;2023-02-27T05:16:22;3.90;;;2.88;;
21615;SDS011;10970;48.714;9.584;2023-02-27T05:19:07;6.10;;;2.97;;
21615;SDS011;10970;48.714;9.584;2023-02-27T05:21:41;4.10;;;3.70;;
21615;SDS011;10970;48.714;9.584;2023-02-27T05:29:26;5.35;;;3.20;;
21615;SDS011;10970;48.714;9.584;2023-02-27T05:33:01;3.15;;;2.60;;
21615;SDS011;10970;48.714;9.584;2023-02-27T05:37:57;3.00;;;2.70;;
21615;SDS011;10970;48.714;9.584;2023-02-27T05:40:29;3.60;;;3.10;;
21615;SDS011;10970;48.714;9.584;2023-02-27T05:43:09;6.47;;;3.20;;
21615;SDS011;10970;48.714;9.584;2023-02-27T05:45:47;2.63;;;2.42;;
21615;SDS011;10970;48.714;9.584;2023-02-27T05:48:19;5.07;;;3.22;;
21615;SDS011;10970;48.714;9.584;2023-02-27T05:50:50;3.50;;;3.15;;
21615;SDS011;10970;48.714;9.584;2023-02-27T05:53:18;4.30;;;2.92;;
21615;SDS011;10970;48.714;9.584;2023-02-27T05:55:46;2.95;;;2.75;;
21615;SDS011;10970;48.714;9.584;2023-02-27T06:00:46;3.17;;;2.92;;
21615;SDS011;10970;48.714;9.584;2023-02-27T06:03:30;3.20;;;2.90;;
21615;SDS011;10970;48.714;9.584;2023-02-27T06:05:59;4.63;;;3.50;;
21615;SDS011;10970;48.714;9.584;2023-02-27T06:08:26;7.72;;;3.05;;
21615;SDS011;10970;48.714;9.584;2023-02-27T06:10:52;5.57;;;3.53;;
21615;SDS011;10970;48.714;9.584;2023-02-27T06:13:19;4.22;;;3.75;;
21615;SDS011;10970;48.714;9.584;2023-02-27T06:15:46;5.70;;;3.17;;
21615;SDS011;10970;48.714;9.584;2023-02-27T06:18:12;4.60;;;4.05;;
21615;SDS011;10970;48.714;9.584;2023-02-27T06:20:39;3.63;;;3.28;;
21615;SDS011;10970;48.714;9.584;2023-02-27T06:23:05;4.75;;;4.32;;
21615;SDS011;10970;48.714;9.584;2023-02-27T06:25:31;4.03;;;3.60;;
21615;SDS011;10970;48.714;9.584;2023-02-27T06:27:58;4.25;;;2.78;;
21615;SDS011;10970;48.714;9.584;2023-02-27T06:30:23;6.50;;;4.03;;
21615;SDS011;10970;48.714;9.584;2023-02-27T06:32:49;5.10;;;3.83;;
21615;SDS011;10970;48.714;9.584;2023-02-27T06:35:15;3.67;;;2.83;;
21615;SDS011;10970;48.714;9.584;2023-02-27T06:37:40;3.67;;;3.30;;
21615;SDS011;10970;48.714;9.584;2023-02-27T06:40:06;4.10;;;3.70;;
21615;SDS011;10970;48.714;9.584;2023-02-27T06:42:36;3.90;;;2.95;;
21615;SDS011;10970;48.714;9.584;2023-02-27T06:45:03;5.45;;;4.10;;
21615;SDS011;10970;48.714;9.584;2023-02-27T06:47:29;6.00;;;4.45;;
21615;SDS011;10970;48.714;9.584;2023-02-27T06:49:55;6.82;;;4.07;;
21615;SDS011;10970;48.714;9.584;2023-02-27T06:52:22;6.93;;;4.35;;
21615;SDS011;10970;48.714;9.584;2023-02-27T06:54:47;5.83;;;4.40;;
21615;SDS011;10970;48.714;9.584;2023-02-27T06:57:13;4.47;;;4.07;;
21615;SDS011;10970;48.714;9.584;2023-02-27T06:59:39;3.97;;;3.40;;
21615;SDS011;10970;48.714;9.584;2023-02-27T07:02:05;4.82;;;3.45;;
21615;SDS011;10970;48.714;9.584;2023-02-27T07:04:31;6.80;;;3.60;;
21615;SDS011;10970;48.714;9.584;2023-02-27T07:06:57;5.47;;;4.37;;
21615;SDS011;10970;48.714;9.584;2023-02-27T07:09:23;3.08;;;2.88;;
21615;SDS011;10970;48.714;9.584;2023-02-27T07:11:49;5.07;;;3.42;;
21615;SDS011;10970;48.714;9.584;2023-02-27T07:14:15;8.77;;;3.87;;
21615;SDS011;10970;48.714;9.584;2023-02-27T07:16:41;4.77;;;3.60;;
21615;SDS011;10970;48.714;9.584;2023-02-27T07:19:07;5.80;;;3.90;;
21615;SDS011;10970;48.714;9.584;2023-02-27T07:21:32;3.77;;;3.33;;
21615;SDS011;10970;48.714;9.584;2023-02-27T07:23:58;5.73;;;4.43;;
21615;SDS011;10970;48.714;9.584;2023-02-27T07:26:24;3.43;;;3.13;;
21615;SDS011;10970;48.714;9.584;2023-02-27T07:28:49;3.03;;;2.60;;
21615;SDS011;10970;48.714;9.584;2023-02-27T07:31:15;4.30;;;3.30;;
21615;SDS011;10970;48.714;9.584;2023-02-27T07:33:41;3.17;;;2.97;;
21615;SDS011;10970;48.714;9.584;2023-02-27T07:36:07;5.60;;;3.40;;
21615;SDS011;10970;48.714;9.584;2023-02-27T07:38:33;4.70;;;3.67;;
21615;SDS011;10970;48.714;9.584;2023-02-27T07:40:59;4.00;;;2.60;;
21615;SDS011;10970;48.714;9.584;2023-02-27T07:43:24;4.10;;;3.70;;
21615;SDS011;10970;48.714;9.584;2023-02-27T07:45:50;2.90;;;2.70;;
21615;SDS011;10970;48.714;9.584;2023-02-27T07:48:17;4.70;;;3.67;;
21615;SDS011;10970;48.714;9.584;2023-02-27T07:50:42;3.22;;;3.03;;
21615;SDS011;10970;48.714;9.584;2023-02-27T07:53:08;4.60;;;4.20;;
21615;SDS011;10970;48.714;9.584;2023-02-27T07:55:34;6.00;;;4.27;;
21615;SDS011;10970;48.714;9.584;2023-02-27T07:58:00;2.97;;;2.78;;
21615;SDS011;10970;48.714;9.584;2023-02-27T08:00:26;4.13;;;3.03;;
21615;SDS011;10970;48.714;9.584;2023-02-27T08:02:52;3.33;;;3.03;;
21615;SDS011;10970;48.714;9.584;2023-02-27T08:05:17;4.80;;;4.40;;
21615;SDS011;10970;48.714;9.584;2023-02-27T08:07:43;5.27;;;3.10;;
21615;SDS011;10970;48.714;9.584;2023-02-27T08:10:09;3.17;;;2.70;;
21615;SDS011;10970;48.714;9.584;2023-02-27T08:12:35;11.15;;;3.38;;
21615;SDS011;10970;48.714;9.584;2023-02-27T08:15:01;4.80;;;2.73;;
21615;SDS011;10970;48.714;9.584;2023-02-27T08:17:27;3.30;;;2.80;;
21615;SDS011;10970;48.714;9.584;2023-02-27T08:19:52;4.20;;;3.80;;
21615;SDS011;10970;48.714;9.584;2023-02-27T08:22:18;6.90;;;3.97;;
21615;SDS011;10970;48.714;9.584;2023-02-27T08:24:44;4.93;;;3.72;;
21615;SDS011;10970;48.714;9.584;2023-02-27T08:27:10;5.30;;;3.83;;
21615;SDS011;10970;48.714;9.584;2023-02-27T08:29:36;3.10;;;2.80;;
21615;SDS011;10970;48.714;9.584;2023-02-27T08:32:01;2.57;;;2.33;;
21615;SDS011;10970;48.714;9.584;2023-02-27T08:34:28;5.05;;;3.20;;
21615;SDS011;10970;48.714;9.584;2023-02-27T08:36:54;4.23;;;3.30;;
21615;SDS011;10970;48.714;9.584;2023-02-27T08:39:20;3.60;;;3.10;;
21615;SDS011;10970;48.714;9.584;2023-02-27T08:41:48;6.10;;;4.45;;
21615;SDS011;10970;48.714;9.584;2023-02-27T08:44:15;4.88;;;3.75;;
21615;SDS011;10970;48.714;9.584;2023-02-27T08:46:41;3.30;;;2.87;;
21615;SDS011;10970;48.714;9.584;2023-02-27T08:49:06;3.10;;;2.90;;
21615;SDS011;10970;48.714;9.584;2023-02-27T08:51:32;2.50;;;2.30;;
21615;SDS011;10970;48.714;9.584;2023-02-27T08:53:57;4.07;;;2.80;;
21615;SDS011;10970;48.714;9.584;2023-02-27T08:56:24;3.73;;;2.30;;
21615;SDS011;10970;48.714;9.584;2023-02-27T08:58:50;3.83;;;3.13;;
21615;SDS011;10970;48.714;9.584;2023-02-27T09:01:17;5.00;;;2.70;;
21615;SDS011;10970;48.714;9.584;2023-02-27T09:03:43;2.63;;;2.42;;
21615;SDS011;10970;48.714;9.584;2023-02-27T09:06:08;6.93;;;3.40;;
21615;SDS011;10970;48.714;9.584;2023-02-27T09:08:34;3.17;;;2.57;;
21615;SDS011;10970;48.714;9.584;2023-02-27T09:11:00;3.30;;;2.70;;
21615;SDS011;10970;48.714;9.584;2023-02-27T09:13:27;3.17;;;2.40;;
21615;SDS011;10970;48.714;9.584;2023-02-27T09:15:53;4.00;;;2.45;;
21615;SDS011;10970;48.714;9.584;2023-02-27T09:18:19;3.10;;;2.55;;
21615;SDS011;10970;48.714;9.584;2023-02-27T09:20:44;7.00;;;3.30;;
21615;SDS011;10970;48.714;9.584;2023-02-27T09:23:10;4.73;;;2.43;;
21615;SDS011;10970;48.714;9.584;2023-02-27T09:25:35;4.77;;;3.03;;
21615;SDS011;10970;48.714;9.584;2023-02-27T09:28:01;4.70;;;2.53;;
21615;SDS011;10970;48.714;9.584;2023-02-27T09:30:27;3.10;;;2.90;;
21615;SDS011;10970;48.714;9.584;2023-02-27T09:32:52;3.40;;;3.00;;
21615;SDS011;10970;48.714;9.584;2023-02-27T09:35:18;3.83;;;2.77;;
21615;SDS011;10970;48.714;9.584;2023-02-27T09:37:44;3.10;;;2.80;;
21615;SDS011;10970;48.714;9.584;2023-02-27T09:40:17;2.08;;;1.98;;
21615;SDS011;10970;48.714;9.584;2023-02-27T09:42:47;5.05;;;3.22;;
21615;SDS011;10970;48.714;9.584;2023-02-27T09:45:21;2.80;;;2.60;;
21615;SDS011;10970;48.714;9.584;2023-02-27T09:47:57;2.97;;;2.78;;
21615;SDS011;10970;48.714;9.584;2023-02-27T09:53:04;2.03;;;1.92;;
21615;SDS011;10970;48.714;9.584;2023-02-27T09:55:36;6.00;;;2.95;;
21615;SDS011;10970;48.714;9.584;2023-02-27T09:58:23;3.80;;;2.95;;
21615;SDS011;10970;48.714;9.584;2023-02-27T10:01:13;5.18;;;2.95;;
21615;SDS011;10970;48.714;9.584;2023-02-27T10:09:42;2.80;;;2.60;;
21615;SDS011;10970;48.714;9.584;2023-02-27T10:15:00;3.90;;;2.58;;
21615;SDS011;10970;48.714;9.584;2023-02-27T10:17:48;6.90;;;3.08;;
21615;SDS011;10970;48.714;9.584;2023-02-27T10:20:31;2.15;;;2.00;;
21615;SDS011;10970;48.714;9.584;2023-02-27T10:23:02;3.17;;;2.60;;
21615;SDS011;10970;48.714;9.584;2023-02-27T10:25:37;8.05;;;3.15;;
21615;SDS011;10970;48.714;9.584;2023-02-27T10:28:11;3.58;;;2.03;;
21615;SDS011;10970;48.714;9.584;2023-02-27T10:30:38;2.97;;;2.40;;
21615;SDS011;10970;48.714;9.584;2023-02-27T10:33:09;3.20;;;2.40;;
21615;SDS011;10970;48.714;9.584;2023-02-27T10:35:44;2.08;;;1.80;;
21615;SDS011;10970;48.714;9.584;2023-02-27T10:40:44;2.28;;;2.10;;
21615;SDS011;10970;48.714;9.584;2023-02-27T10:43:12;3.33;;;1.83;;
21615;SDS011;10970;48.714;9.584;2023-02-27T10:45:40;2.90;;;2.20;;
21615;SDS011;10970;48.714;9.584;2023-02-27T10:48:08;2.47;;;2.30;;
21615;SDS011;10970;48.714;9.584;2023-02-27T10:50:38;3.55;;;2.38;;
21615;SDS011;10970;48.714;9.584;2023-02-27T10:53:16;2.95;;;2.20;;
21615;SDS011;10970;48.714;9.584;2023-02-27T10:58:29;2.05;;;1.95;;
21615;SDS011;10970;48.714;9.584;2023-02-27T11:00:59;4.78;;;2.28;;
21615;SDS011;10970;48.714;9.584;2023-02-27T11:03:34;3.70;;;1.95;;
21615;SDS011;10970;48.714;9.584;2023-02-27T11:06:05;3.05;;;2.20;;
21615;SDS011;10970;48.714;9.584;2023-02-27T11:08:37;4.78;;;2.70;;
21615;SDS011;10970;48.714;9.584;2023-02-27T11:13:39;5.65;;;2.67;;
21615;SDS011;10970;48.714;9.584;2023-02-27T11:18:39;3.53;;;2.00;;
21615;SDS011;10970;48.714;9.584;2023-02-27T11:21:27;3.17;;;1.92;;
21615;SDS011;10970;48.714;9.584;2023-02-27T11:26:26;1.70;;;1.60;;
21615;SDS011;10970;48.714;9.584;2023-02-27T11:31:39;1.80;;;1.70;;
21615;SDS011;10970;48.714;9.584;2023-02-27T11:34:17;4.38;;;2.40;;
21615;SDS011;10970;48.714;9.584;2023-02-27T11:36:51;2.00;;;1.88;;
21615;SDS011;10970;48.714;9.584;2023-02-27T11:41:48;2.40;;;2.20;;
21615;SDS011;10970;48.714;9.584;2023-02-27T11:44:18;5.45;;;2.30;;
21615;SDS011;10970;48.714;9.584;2023-02-27T11:46:48;2.88;;;1.70;;
21615;SDS011;10970;48.714;9.584;2023-02-27T11:49:24;3.03;;;2.10;;
21615;SDS011;10970;48.714;9.584;2023-02-27T11:57:01;3.35;;;2.97;;
21615;SDS011;10970;48.714;9.584;2023-02-27T11:59:46;2.10;;;2.00;;
21615;SDS011;10970;48.714;9.584;2023-02-27T12:02:24;2.40;;;2.20;;
21615;SDS011;10970;48.714;9.584;2023-02-27T12:05:18;2.72;;;2.50;;
21615;SDS011;10970;48.714;9.584;2023-02-27T12:10:19;1.83;;;1.70;;
21615;SDS011;10970;48.714;9.584;2023-02-27T12:15:41;3.58;;;2.42;;
21615;SDS011;10970;48.714;9.584;2023-02-27T12:23:40;1.88;;;1.70;;
21615;SDS011;10970;48.714;9.584;2023-02-27T12:28:48;2.60;;;1.75;;
21615;SDS011;10970;48.714;9.584;2023-02-27T12:36:53;2.38;;;2.00;;
21615;SDS011;10970;48.714;9.584;2023-02-27T12:39:22;4.38;;;2.20;;
21615;SDS011;10970;48.714;9.584;2023-02-27T12:41:56;3.95;;;2.10;;
21615;SDS011;10970;48.714;9.584;2023-02-27T12:47:36;4.30;;;2.35;;
21615;SDS011;10970;48.714;9.584;2023-02-27T12:50:24;2.25;;;2.00;;
21615;SDS011;10970;48.714;9.584;2023-02-27T12:53:00;3.75;;;1.70;;
21615;SDS011;10970;48.714;9.584;2023-02-27T12:56:33;1.98;;;1.80;;
21615;SDS011;10970;48.714;9.584;2023-02-27T13:04:28;8.07;;;2.28;;
21615;SDS011;10970;48.714;9.584;2023-02-27T13:07:04;2.30;;;2.20;;
21615;SDS011;10970;48.714;9.584;2023-02-27T13:09:40;2.67;;;2.47;;
21615;SDS011;10970;48.714;9.584;2023-02-27T13:15:02;2.83;;;2.63;;
21615;SDS011;10970;48.714;9.584;2023-02-27T13:17:38;4.00;;;2.63;;
21615;SDS011;10970;48.714;9.584;2023-02-27T13:25:37;2.13;;;2.03;;
21615;SDS011;10970;48.714;9.584;2023-02-27T13:28:07;3.53;;;3.22;;
21615;SDS011;10970;48.714;9.584;2023-02-27T13:30:40;4.22;;;2.75;;
21615;SDS011;10970;48.714;9.584;2023-02-27T13:33:23;3.20;;;2.28;;
21615;SDS011;10970;48.714;9.584;2023-02-27T13:38:52;2.58;;;2.47;;
21615;SDS011;10970;48.714;9.584;2023-02-27T13:43:47;4.63;;;2.23;;
21615;SDS011;10970;48.714;9.584;2023-02-27T13:46:26;1.58;;;1.48;;
21615;SDS011;10970;48.714;9.584;2023-02-27T13:54:07;2.67;;;2.17;;
21615;SDS011;10970;48.714;9.584;2023-02-27T14:01:55;4.35;;;2.08;;
21615;SDS011;10970;48.714;9.584;2023-02-27T14:04:24;2.53;;;1.95;;
21615;SDS011;10970;48.714;9.584;2023-02-27T14:06:59;3.20;;;2.38;;
21615;SDS011;10970;48.714;9.584;2023-02-27T14:09:35;2.05;;;1.60;;
21615;SDS011;10970;48.714;9.584;2023-02-27T14:12:04;1.75;;;1.65;;
21615;SDS011;10970;48.714;9.584;2023-02-27T14:14:50;3.28;;;2.20;;
21615;SDS011;10970;48.714;9.584;2023-02-27T14:17:38;2.80;;;2.45;;
21615;SDS011;10970;48.714;9.584;2023-02-27T14:23:08;2.25;;;2.05;;
21615;SDS011;10970;48.714;9.584;2023-02-27T14:31:22;1.77;;;1.67;;
21615;SDS011;10970;48.714;9.584;2023-02-27T14:33:56;1.10;;;1.10;;
21615;SDS011;10970;48.714;9.584;2023-02-27T14:36:31;4.05;;;1.40;;
21615;SDS011;10970;48.714;9.584;2023-02-27T14:39:00;2.67;;;2.00;;
21615;SDS011;10970;48.714;9.584;2023-02-27T14:44:18;1.70;;;1.60;;
21615;SDS011;10970;48.714;9.584;2023-02-27T14:46:46;1.98;;;1.80;;
21615;SDS011;10970;48.714;9.584;2023-02-27T14:49:20;6.88;;;1.73;;
21615;SDS011;10970;48.714;9.584;2023-02-27T14:51:51;2.05;;;1.55;;
21615;SDS011;10970;48.714;9.584;2023-02-27T14:54:19;2.22;;;2.00;;
21615;SDS011;10970;48.714;9.584;2023-02-27T14:59:27;2.00;;;1.65;;
21615;SDS011;10970;48.714;9.584;2023-02-27T15:01:58;2.00;;;1.23;;
21615;SDS011;10970;48.714;9.584;2023-02-27T15:04:28;5.95;;;2.05;;
21615;SDS011;10970;48.714;9.584;2023-02-27T15:06:57;1.65;;;1.55;;
21615;SDS011;10970;48.714;9.584;2023-02-27T15:09:26;2.30;;;2.10;;
21615;SDS011;10970;48.714;9.584;2023-02-27T15:11:57;2.38;;;2.25;;
21615;SDS011;10970;48.714;9.584;2023-02-27T15:14:25;1.93;;;1.83;;
21615;SDS011;10970;48.714;9.584;2023-02-27T15:16:58;3.25;;;1.63;;
21615;SDS011;10970;48.714;9.584;2023-02-27T15:19:24;3.43;;;1.77;;
21615;SDS011;10970;48.714;9.584;2023-02-27T15:21:53;1.63;;;1.52;;
21615;SDS011;10970;48.714;9.584;2023-02-27T15:24:24;1.73;;;1.63;;
21615;SDS011;10970;48.714;9.584;2023-02-27T15:26:51;1.63;;;1.52;;
21615;SDS011;10970;48.714;9.584;2023-02-27T15:29:24;1.50;;;1.40;;
21615;SDS011;10970;48.714;9.584;2023-02-27T15:31:59;2.38;;;2.22;;
21615;SDS011;10970;48.714;9.584;2023-02-27T15:34:25;3.53;;;1.30;;
21615;SDS011;10970;48.714;9.584;2023-02-27T15:36:51;1.90;;;1.80;;
21615;SDS011;10970;48.714;9.584;2023-02-27T15:39:20;1.98;;;1.48;;
21615;SDS011;10970;48.714;9.584;2023-02-27T15:44:51;3.28;;;2.40;;
21615;SDS011;10970;48.714;9.584;2023-02-27T15:47:12;1.88;;;1.77;;
21615;SDS011;10970;48.714;9.584;2023-02-27T15:49:51;1.55;;;1.45;;
21615;SDS011;10970;48.714;9.584;2023-02-27T15:52:38;1.70;;;1.60;;
21615;SDS011;10970;48.714;9.584;2023-02-27T15:55:13;2.15;;;1.88;;
21615;SDS011;10970;48.714;9.584;2023-02-27T15:57:42;1.60;;;1.50;;
21615;SDS011;10970;48.714;9.584;2023-02-27T16:00:08;1.75;;;1.65;;
21615;SDS011;10970;48.714;9.584;2023-02-27T16:02:56;1.77;;;1.67;;
21615;SDS011;10970;48.714;9.584;2023-02-27T16:05:25;2.08;;;1.67;;
21615;SDS011;10970;48.714;9.584;2023-02-27T16:08:00;1.70;;;1.60;;
21615;SDS011;10970;48.714;9.584;2023-02-27T16:10:34;1.92;;;1.83;;
21615;SDS011;10970;48.714;9.584;2023-02-27T16:18:43;3.35;;;1.70;;
21615;SDS011;10970;48.714;9.584;2023-02-27T16:21:19;2.25;;;2.08;;
21615;SDS011;10970;48.714;9.584;2023-02-27T16:23:46;1.95;;;1.85;;
21615;SDS011;10970;48.714;9.584;2023-02-27T16:26:26;1.95;;;1.85;;
21615;SDS011;10970;48.714;9.584;2023-02-27T16:29:00;3.10;;;1.98;;
21615;SDS011;10970;48.714;9.584;2023-02-27T16:31:38;4.97;;;2.10;;
21615;SDS011;10970;48.714;9.584;2023-02-27T16:36:41;8.20;;;3.88;;
21615;SDS011;10970;48.714;9.584;2023-02-27T16:39:16;3.20;;;2.92;;
21615;SDS011;10970;48.714;9.584;2023-02-27T16:41:42;2.97;;;2.10;;
21615;SDS011;10970;48.714;9.584;2023-02-27T16:44:08;4.63;;;2.20;;
21615;SDS011;10970;48.714;9.584;2023-02-27T16:46:34;4.13;;;2.95;;
21615;SDS011;10970;48.714;9.584;2023-02-27T16:49:00;2.08;;;1.98;;
21615;SDS011;10970;48.714;9.584;2023-02-27T16:51:27;3.10;;;2.80;;
21615;SDS011;10970;48.714;9.584;2023-02-27T16:53:56;4.50;;;2.80;;
21615;SDS011;10970;48.714;9.584;2023-02-27T16:56:26;2.35;;;2.10;;
21615;SDS011;10970;48.714;9.584;2023-02-27T16:58:55;1.90;;;1.80;;
21615;SDS011;10970;48.714;9.584;2023-02-27T17:01:20;2.40;;;2.20;;
21615;SDS011;10970;48.714;9.584;2023-02-27T17:03:46;2.65;;;2.45;;
21615;SDS011;10970;48.714;9.584;2023-02-27T17:06:13;2.97;;;2.50;;
21615;SDS011;10970;48.714;9.584;2023-02-27T17:08:39;2.75;;;2.55;;
21615;SDS011;10970;48.714;9.584;2023-02-27T17:11:06;3.45;;;2.05;;
21615;SDS011;10970;48.714;9.584;2023-02-27T17:13:33;7.37;;;2.60;;
21615;SDS011;10970;48.714;9.584;2023-02-27T17:16:01;2.72;;;2.47;;
21615;SDS011;10970;48.714;9.584;2023-02-27T17:18:27;2.00;;;1.90;;
21615;SDS011;10970;48.714;9.584;2023-02-27T17:20:53;3.00;;;2.00;;
21615;SDS011;10970;48.714;9.584;2023-02-27T17:23:21;2.47;;;2.10;;
21615;SDS011;10970;48.714;9.584;2023-02-27T17:25:47;3.03;;;2.83;;
21615;SDS011;10970;48.714;9.584;2023-02-27T17:28:12;1.80;;;1.70;;
21615;SDS011;10970;48.714;9.584;2023-02-27T17:30:39;1.30;;;1.30;;
21615;SDS011;10970;48.714;9.584;2023-02-27T17:33:05;1.83;;;1.55;;
21615;SDS011;10970;48.714;9.584;2023-02-27T17:35:31;3.55;;;1.75;;
21615;SDS011;10970;48.714;9.584;2023-02-27T17:37:57;1.93;;;1.67;;
21615;SDS011;10970;48.714;9.584;2023-02-27T17:40:24;1.73;;;1.63;;
21615;SDS011;10970;48.714;9.584;2023-02-27T17:42:50;2.40;;;2.20;;
21615;SDS011;10970;48.714;9.584;2023-02-27T17:45:16;3.20;;;2.17;;
21615;SDS011;10970;48.714;9.584;2023-02-27T17:47:45;1.80;;;1.70;;
21615;SDS011;10970;48.714;9.584;2023-02-27T17:50:11;2.20;;;2.10;;
21615;SDS011;10970;48.714;9.584;2023-02-27T17:52:37;2.70;;;2.50;;
21615;SDS011;10970;48.714;9.584;2023-02-27T17:55:04;3.90;;;2.72;;
21615;SDS011;10970;48.714;9.584;2023-02-27T17:57:33;1.63;;;1.52;;
21615;SDS011;10970;48.714;9.584;2023-02-27T17:59:59;5.07;;;3.80;;
21615;SDS011;10970;48.714;9.584;2023-02-27T18:02:26;5.50;;;2.92;;
21615;SDS011;10970;48.714;9.584;2023-02-27T18:04:52;2.47;;;2.30;;
21615;SDS011;10970;48.714;9.584;2023-02-27T18:07:17;2.50;;;2.27;;
21615;SDS011;10970;48.714;9.584;2023-02-27T18:09:43;2.17;;;2.07;;
21615;SDS011;10970;48.714;9.584;2023-02-27T18:12:10;2.47;;;2.38;;
21615;SDS011;10970;48.714;9.584;2023-02-27T18:14:36;3.67;;;2.73;;